This is the latest recevied weather packets stored in our database for station/object EB2BAG-11. If no packets are shown the sender has not sent any weather packets the latest 1 day(s).
| Time | Temp. | Humidity | Pressure | Rain* | Wind** | Luminosity | Snow |
|---|---|---|---|---|---|---|---|
| 1777760149 | 17.78° C | 67% | 1014.3 hPa | - | - | - | - |
| 1777758949 | 17.22° C | 78% | 1014.4 hPa | - | - | - | - |
| 1777757749 | 16.67° C | 82% | 1014.4 hPa | - | - | - | - |
| 1777756549 | 17.78° C | 79% | 1014.5 hPa | - | - | - | - |
| 1777755349 | 16.67° C | 81% | 1014.5 hPa | - | - | - | - |
| 1777754149 | 17.22° C | 76% | 1014.3 hPa | - | - | - | - |
| 1777752949 | 16.67° C | 76% | 1014.1 hPa | - | - | - | - |
| 1777751748 | 17.22° C | 80% | 1014.7 hPa | - | - | - | - |
| 1777750548 | 16.67° C | 81% | 1014.7 hPa | - | - | - | - |
| 1777749348 | 17.22° C | 79% | 1015.3 hPa | - | - | - | - |
| 1777748148 | 17.78° C | 77% | 1014.8 hPa | - | - | - | - |
| 1777746948 | 17.78° C | 74% | 1014.5 hPa | - | - | - | - |
| 1777745748 | 17.78° C | 69% | 1014.3 hPa | - | - | - | - |
| 1777744547 | 17.78° C | 69% | 1014.5 hPa | - | - | - | - |
| 1777743347 | 18.33° C | 68% | 1014.4 hPa | - | - | - | - |
| 1777742147 | 18.33° C | 73% | 1014.5 hPa | - | - | - | - |
| 1777740947 | 18.33° C | 78% | 1014.8 hPa | - | - | - | - |
| 1777739747 | 19.44° C | 79% | 1015.5 hPa | - | - | - | - |
| 1777738547 | 18.89° C | 81% | 1015.4 hPa | - | - | - | - |
| 1777737347 | 20° C | 69% | 1015.2 hPa | - | - | - | - |
| 1777736147 | 20° C | 75% | 1015.1 hPa | - | - | - | - |
| 1777734947 | 19.44° C | 81% | 1015.3 hPa | - | - | - | - |
| 1777733746 | 19.44° C | 79% | 1015.5 hPa | - | - | - | - |
| 1777732546 | 19.44° C | 80% | 1015.6 hPa | - | - | - | - |
| 1777731346 | 19.44° C | 76% | 1015.8 hPa | - | - | - | - |
* Rain since midnight (hover to see other rain measurements)
** Current wind speed in m/s (hover to see current wind gust speed)